sensor_id;sensor_type;location;lat;lon;timestamp;P1;durP1;ratioP1;P2;durP2;ratioP2
69625;SDS011;56847;51.984;5.088;2022-08-20T00:02:12;26.73;;;15.70;;
69625;SDS011;56847;51.984;5.088;2022-08-20T00:04:46;29.73;;;15.30;;
69625;SDS011;56847;51.984;5.088;2022-08-20T00:07:17;26.40;;;16.02;;
69625;SDS011;56847;51.984;5.088;2022-08-20T00:09:45;24.55;;;15.88;;
69625;SDS011;56847;51.984;5.088;2022-08-20T00:12:15;26.97;;;16.50;;
69625;SDS011;56847;51.984;5.088;2022-08-20T00:14:43;31.42;;;17.42;;
69625;SDS011;56847;51.984;5.088;2022-08-20T00:17:21;26.35;;;16.42;;
69625;SDS011;56847;51.984;5.088;2022-08-20T00:19:53;25.30;;;17.75;;
69625;SDS011;56847;51.984;5.088;2022-08-20T00:22:25;26.92;;;16.50;;
69625;SDS011;56847;51.984;5.088;2022-08-20T00:24:56;29.80;;;16.57;;
69625;SDS011;56847;51.984;5.088;2022-08-20T00:27:27;30.13;;;16.95;;
69625;SDS011;56847;51.984;5.088;2022-08-20T00:30:26;28.92;;;16.25;;
69625;SDS011;56847;51.984;5.088;2022-08-20T00:32:59;24.23;;;16.08;;
69625;SDS011;56847;51.984;5.088;2022-08-20T00:35:34;28.02;;;16.98;;
69625;SDS011;56847;51.984;5.088;2022-08-20T00:38:06;30.47;;;16.37;;
69625;SDS011;56847;51.984;5.088;2022-08-20T00:40:35;28.25;;;17.73;;
69625;SDS011;56847;51.984;5.088;2022-08-20T00:43:06;27.35;;;15.48;;
69625;SDS011;56847;51.984;5.088;2022-08-20T00:45:49;26.50;;;15.75;;
69625;SDS011;56847;51.984;5.088;2022-08-20T00:48:25;29.98;;;16.33;;
69625;SDS011;56847;51.984;5.088;2022-08-20T00:51:00;27.60;;;15.93;;
69625;SDS011;56847;51.984;5.088;2022-08-20T00:53:39;25.92;;;15.57;;
69625;SDS011;56847;51.984;5.088;2022-08-20T00:56:08;26.58;;;16.17;;
69625;SDS011;56847;51.984;5.088;2022-08-20T00:58:40;24.23;;;15.40;;
69625;SDS011;56847;51.984;5.088;2022-08-20T01:01:11;23.40;;;14.93;;
69625;SDS011;56847;51.984;5.088;2022-08-20T01:03:42;27.50;;;15.97;;
69625;SDS011;56847;51.984;5.088;2022-08-20T01:06:09;35.58;;;15.93;;
69625;SDS011;56847;51.984;5.088;2022-08-20T01:08:40;27.67;;;14.25;;
69625;SDS011;56847;51.984;5.088;2022-08-20T01:11:09;27.42;;;14.45;;
69625;SDS011;56847;51.984;5.088;2022-08-20T01:13:43;21.98;;;14.35;;
69625;SDS011;56847;51.984;5.088;2022-08-20T01:16:21;25.17;;;14.90;;
69625;SDS011;56847;51.984;5.088;2022-08-20T01:18:53;26.42;;;14.93;;
69625;SDS011;56847;51.984;5.088;2022-08-20T01:21:24;26.65;;;14.85;;
69625;SDS011;56847;51.984;5.088;2022-08-20T01:26:42;27.50;;;14.35;;
69625;SDS011;56847;51.984;5.088;2022-08-20T01:29:16;23.60;;;14.53;;
69625;SDS011;56847;51.984;5.088;2022-08-20T01:31:48;27.40;;;14.95;;
69625;SDS011;56847;51.984;5.088;2022-08-20T01:34:22;24.92;;;14.57;;
69625;SDS011;56847;51.984;5.088;2022-08-20T01:36:51;25.58;;;15.40;;
69625;SDS011;56847;51.984;5.088;2022-08-20T01:39:30;25.92;;;15.25;;
69625;SDS011;56847;51.984;5.088;2022-08-20T01:42:11;27.07;;;14.17;;
69625;SDS011;56847;51.984;5.088;2022-08-20T01:44:52;25.95;;;14.98;;
69625;SDS011;56847;51.984;5.088;2022-08-20T01:47:25;23.58;;;14.27;;
69625;SDS011;56847;51.984;5.088;2022-08-20T01:50:09;25.92;;;14.45;;
69625;SDS011;56847;51.984;5.088;2022-08-20T01:55:22;28.50;;;15.47;;
69625;SDS011;56847;51.984;5.088;2022-08-20T01:57:56;32.58;;;14.57;;
69625;SDS011;56847;51.984;5.088;2022-08-20T02:00:29;27.00;;;15.20;;
69625;SDS011;56847;51.984;5.088;2022-08-20T02:02:59;28.27;;;15.35;;
69625;SDS011;56847;51.984;5.088;2022-08-20T02:05:29;28.90;;;16.17;;
69625;SDS011;56847;51.984;5.088;2022-08-20T02:07:59;30.07;;;16.37;;
69625;SDS011;56847;51.984;5.088;2022-08-20T02:10:28;28.77;;;14.88;;
69625;SDS011;56847;51.984;5.088;2022-08-20T02:12:58;22.52;;;13.10;;
69625;SDS011;56847;51.984;5.088;2022-08-20T02:15:26;27.67;;;13.77;;
69625;SDS011;56847;51.984;5.088;2022-08-20T02:18:07;24.38;;;12.85;;
69625;SDS011;56847;51.984;5.088;2022-08-20T02:20:37;28.53;;;12.60;;
69625;SDS011;56847;51.984;5.088;2022-08-20T02:23:06;21.27;;;12.40;;
69625;SDS011;56847;51.984;5.088;2022-08-20T02:25:37;20.27;;;12.00;;
69625;SDS011;56847;51.984;5.088;2022-08-20T02:28:09;27.65;;;12.30;;
69625;SDS011;56847;51.984;5.088;2022-08-20T02:30:45;19.92;;;10.70;;
69625;SDS011;56847;51.984;5.088;2022-08-20T02:33:16;21.93;;;11.40;;
69625;SDS011;56847;51.984;5.088;2022-08-20T02:35:50;24.15;;;10.60;;
69625;SDS011;56847;51.984;5.088;2022-08-20T02:38:22;22.45;;;10.57;;
69625;SDS011;56847;51.984;5.088;2022-08-20T02:40:51;16.60;;;9.35;;
69625;SDS011;56847;51.984;5.088;2022-08-20T02:43:22;18.20;;;9.65;;
69625;SDS011;56847;51.984;5.088;2022-08-20T02:45:52;18.93;;;9.17;;
69625;SDS011;56847;51.984;5.088;2022-08-20T02:48:21;17.92;;;9.40;;
69625;SDS011;56847;51.984;5.088;2022-08-20T02:50:53;16.42;;;7.35;;
69625;SDS011;56847;51.984;5.088;2022-08-20T02:53:27;13.63;;;7.25;;
69625;SDS011;56847;51.984;5.088;2022-08-20T02:56:02;17.73;;;7.57;;
69625;SDS011;56847;51.984;5.088;2022-08-20T02:58:34;13.37;;;7.47;;
69625;SDS011;56847;51.984;5.088;2022-08-20T03:01:06;21.27;;;8.02;;
69625;SDS011;56847;51.984;5.088;2022-08-20T03:03:43;17.63;;;6.78;;
69625;SDS011;56847;51.984;5.088;2022-08-20T03:06:11;24.50;;;7.53;;
69625;SDS011;56847;51.984;5.088;2022-08-20T03:08:43;17.08;;;7.68;;
69625;SDS011;56847;51.984;5.088;2022-08-20T03:11:15;16.50;;;7.10;;
69625;SDS011;56847;51.984;5.088;2022-08-20T03:16:40;24.90;;;7.10;;
69625;SDS011;56847;51.984;5.088;2022-08-20T03:19:11;18.88;;;6.82;;
69625;SDS011;56847;51.984;5.088;2022-08-20T03:21:43;13.48;;;6.70;;
69625;SDS011;56847;51.984;5.088;2022-08-20T03:24:11;19.13;;;6.87;;
69625;SDS011;56847;51.984;5.088;2022-08-20T03:26:45;19.08;;;7.57;;
69625;SDS011;56847;51.984;5.088;2022-08-20T03:29:13;17.88;;;6.88;;
69625;SDS011;56847;51.984;5.088;2022-08-20T03:31:45;13.77;;;6.90;;
69625;SDS011;56847;51.984;5.088;2022-08-20T03:34:13;23.52;;;6.93;;
69625;SDS011;56847;51.984;5.088;2022-08-20T03:36:41;13.53;;;6.10;;
69625;SDS011;56847;51.984;5.088;2022-08-20T03:39:13;20.05;;;6.72;;
69625;SDS011;56847;51.984;5.088;2022-08-20T03:41:41;17.92;;;6.38;;
69625;SDS011;56847;51.984;5.088;2022-08-20T03:44:08;16.25;;;6.88;;
69625;SDS011;56847;51.984;5.088;2022-08-20T03:46:39;12.57;;;6.07;;
69625;SDS011;56847;51.984;5.088;2022-08-20T03:49:06;13.23;;;5.87;;
69625;SDS011;56847;51.984;5.088;2022-08-20T03:51:34;13.57;;;6.57;;
69625;SDS011;56847;51.984;5.088;2022-08-20T03:54:22;15.13;;;6.43;;
69625;SDS011;56847;51.984;5.088;2022-08-20T03:56:55;15.18;;;6.82;;
69625;SDS011;56847;51.984;5.088;2022-08-20T03:59:22;13.48;;;6.35;;
69625;SDS011;56847;51.984;5.088;2022-08-20T04:01:50;13.93;;;6.63;;
69625;SDS011;56847;51.984;5.088;2022-08-20T04:04:18;17.90;;;6.30;;
69625;SDS011;56847;51.984;5.088;2022-08-20T04:06:46;12.27;;;6.20;;
69625;SDS011;56847;51.984;5.088;2022-08-20T04:09:16;14.60;;;6.82;;
69625;SDS011;56847;51.984;5.088;2022-08-20T04:11:43;14.95;;;5.93;;
69625;SDS011;56847;51.984;5.088;2022-08-20T04:14:11;9.53;;;5.23;;
69625;SDS011;56847;51.984;5.088;2022-08-20T04:16:44;14.77;;;5.50;;
69625;SDS011;56847;51.984;5.088;2022-08-20T04:19:14;16.25;;;5.18;;
69625;SDS011;56847;51.984;5.088;2022-08-20T04:21:43;10.05;;;5.07;;
69625;SDS011;56847;51.984;5.088;2022-08-20T04:24:19;11.93;;;5.35;;
69625;SDS011;56847;51.984;5.088;2022-08-20T04:26:58;13.53;;;4.93;;
69625;SDS011;56847;51.984;5.088;2022-08-20T04:29:29;13.82;;;5.18;;
69625;SDS011;56847;51.984;5.088;2022-08-20T04:32:01;13.55;;;4.63;;
69625;SDS011;56847;51.984;5.088;2022-08-20T04:34:32;12.27;;;5.30;;
69625;SDS011;56847;51.984;5.088;2022-08-20T04:37:03;13.52;;;5.00;;
69625;SDS011;56847;51.984;5.088;2022-08-20T04:39:42;15.60;;;5.07;;
69625;SDS011;56847;51.984;5.088;2022-08-20T04:42:13;14.30;;;5.20;;
69625;SDS011;56847;51.984;5.088;2022-08-20T04:44:40;19.33;;;5.63;;
69625;SDS011;56847;51.984;5.088;2022-08-20T04:47:09;17.50;;;5.63;;
69625;SDS011;56847;51.984;5.088;2022-08-20T04:49:46;10.75;;;4.70;;
69625;SDS011;56847;51.984;5.088;2022-08-20T04:52:27;11.60;;;4.83;;
69625;SDS011;56847;51.984;5.088;2022-08-20T04:54:56;10.57;;;5.18;;
69625;SDS011;56847;51.984;5.088;2022-08-20T04:57:23;10.95;;;5.65;;
69625;SDS011;56847;51.984;5.088;2022-08-20T04:59:54;16.05;;;5.43;;
69625;SDS011;56847;51.984;5.088;2022-08-20T05:02:31;12.07;;;5.50;;
69625;SDS011;56847;51.984;5.088;2022-08-20T05:05:01;14.10;;;5.90;;
69625;SDS011;56847;51.984;5.088;2022-08-20T05:07:29;17.48;;;5.90;;
69625;SDS011;56847;51.984;5.088;2022-08-20T05:09:57;10.15;;;4.60;;
69625;SDS011;56847;51.984;5.088;2022-08-20T05:12:39;18.02;;;5.15;;
69625;SDS011;56847;51.984;5.088;2022-08-20T05:15:22;19.50;;;5.95;;
69625;SDS011;56847;51.984;5.088;2022-08-20T05:17:56;9.57;;;5.83;;
69625;SDS011;56847;51.984;5.088;2022-08-20T05:20:29;10.52;;;5.93;;
69625;SDS011;56847;51.984;5.088;2022-08-20T05:23:00;12.55;;;6.50;;
69625;SDS011;56847;51.984;5.088;2022-08-20T05:25:28;13.02;;;5.60;;
69625;SDS011;56847;51.984;5.088;2022-08-20T05:27:57;16.98;;;7.18;;
69625;SDS011;56847;51.984;5.088;2022-08-20T05:30:28;14.27;;;5.80;;
69625;SDS011;56847;51.984;5.088;2022-08-20T05:33:05;12.18;;;6.22;;
69625;SDS011;56847;51.984;5.088;2022-08-20T05:35:49;16.92;;;6.13;;
69625;SDS011;56847;51.984;5.088;2022-08-20T05:38:30;15.52;;;7.20;;
69625;SDS011;56847;51.984;5.088;2022-08-20T05:41:34;18.73;;;7.63;;
69625;SDS011;56847;51.984;5.088;2022-08-20T05:44:16;14.97;;;7.80;;
69625;SDS011;56847;51.984;5.088;2022-08-20T05:46:49;15.00;;;6.65;;
69625;SDS011;56847;51.984;5.088;2022-08-20T05:49:20;14.82;;;6.03;;
69625;SDS011;56847;51.984;5.088;2022-08-20T05:51:49;13.77;;;5.60;;
69625;SDS011;56847;51.984;5.088;2022-08-20T05:54:17;18.33;;;6.40;;
69625;SDS011;56847;51.984;5.088;2022-08-20T05:56:45;14.43;;;5.97;;
69625;SDS011;56847;51.984;5.088;2022-08-20T05:59:20;14.52;;;5.82;;
69625;SDS011;56847;51.984;5.088;2022-08-20T06:01:51;13.20;;;5.93;;
69625;SDS011;56847;51.984;5.088;2022-08-20T06:04:19;13.93;;;5.53;;
69625;SDS011;56847;51.984;5.088;2022-08-20T06:07:01;14.55;;;5.95;;
69625;SDS011;56847;51.984;5.088;2022-08-20T06:09:30;12.17;;;5.50;;
69625;SDS011;56847;51.984;5.088;2022-08-20T06:12:02;17.27;;;5.97;;
69625;SDS011;56847;51.984;5.088;2022-08-20T06:14:32;15.15;;;5.32;;
69625;SDS011;56847;51.984;5.088;2022-08-20T06:19:35;11.98;;;5.28;;
69625;SDS011;56847;51.984;5.088;2022-08-20T06:22:04;13.33;;;5.03;;
69625;SDS011;56847;51.984;5.088;2022-08-20T06:24:47;9.93;;;4.90;;
69625;SDS011;56847;51.984;5.088;2022-08-20T06:27:15;13.20;;;5.60;;
69625;SDS011;56847;51.984;5.088;2022-08-20T06:29:42;12.65;;;4.60;;
69625;SDS011;56847;51.984;5.088;2022-08-20T06:32:09;16.00;;;5.20;;
69625;SDS011;56847;51.984;5.088;2022-08-20T06:34:37;15.53;;;4.77;;
69625;SDS011;56847;51.984;5.088;2022-08-20T06:37:17;17.05;;;5.00;;
69625;SDS011;56847;51.984;5.088;2022-08-20T06:39:46;13.02;;;4.70;;
69625;SDS011;56847;51.984;5.088;2022-08-20T06:42:13;17.17;;;4.80;;
69625;SDS011;56847;51.984;5.088;2022-08-20T06:44:47;13.60;;;4.45;;
69625;SDS011;56847;51.984;5.088;2022-08-20T06:47:16;15.97;;;4.97;;
69625;SDS011;56847;51.984;5.088;2022-08-20T06:49:46;12.63;;;4.70;;
69625;SDS011;56847;51.984;5.088;2022-08-20T06:52:14;20.35;;;4.70;;
69625;SDS011;56847;51.984;5.088;2022-08-20T06:54:43;15.68;;;4.28;;
69625;SDS011;56847;51.984;5.088;2022-08-20T06:57:10;15.43;;;4.15;;
69625;SDS011;56847;51.984;5.088;2022-08-20T06:59:38;13.60;;;3.70;;
69625;SDS011;56847;51.984;5.088;2022-08-20T07:02:08;11.10;;;4.18;;
69625;SDS011;56847;51.984;5.088;2022-08-20T07:04:35;12.38;;;4.20;;
69625;SDS011;56847;51.984;5.088;2022-08-20T07:07:03;14.70;;;4.30;;
69625;SDS011;56847;51.984;5.088;2022-08-20T07:09:30;14.25;;;3.60;;
69625;SDS011;56847;51.984;5.088;2022-08-20T07:11:57;11.00;;;3.50;;
69625;SDS011;56847;51.984;5.088;2022-08-20T07:14:25;17.67;;;4.70;;
69625;SDS011;56847;51.984;5.088;2022-08-20T07:16:52;11.48;;;3.60;;
69625;SDS011;56847;51.984;5.088;2022-08-20T07:19:19;14.77;;;3.90;;
69625;SDS011;56847;51.984;5.088;2022-08-20T07:21:47;12.82;;;4.10;;
69625;SDS011;56847;51.984;5.088;2022-08-20T07:24:16;13.30;;;3.50;;
69625;SDS011;56847;51.984;5.088;2022-08-20T07:26:44;11.43;;;3.95;;
69625;SDS011;56847;51.984;5.088;2022-08-20T07:29:14;9.80;;;3.15;;
69625;SDS011;56847;51.984;5.088;2022-08-20T07:31:46;12.25;;;3.28;;
69625;SDS011;56847;51.984;5.088;2022-08-20T07:34:35;7.45;;;2.83;;
69625;SDS011;56847;51.984;5.088;2022-08-20T07:37:08;10.17;;;3.47;;
69625;SDS011;56847;51.984;5.088;2022-08-20T07:39:36;12.50;;;3.33;;
69625;SDS011;56847;51.984;5.088;2022-08-20T07:42:06;10.13;;;3.38;;
69625;SDS011;56847;51.984;5.088;2022-08-20T07:44:33;10.23;;;3.35;;
69625;SDS011;56847;51.984;5.088;2022-08-20T07:47:00;9.18;;;3.33;;
69625;SDS011;56847;51.984;5.088;2022-08-20T07:49:30;10.63;;;3.10;;
69625;SDS011;56847;51.984;5.088;2022-08-20T07:51:57;9.27;;;2.90;;
69625;SDS011;56847;51.984;5.088;2022-08-20T07:54:26;9.65;;;3.33;;
69625;SDS011;56847;51.984;5.088;2022-08-20T07:56:59;11.57;;;3.58;;
69625;SDS011;56847;51.984;5.088;2022-08-20T07:59:28;9.18;;;2.92;;
69625;SDS011;56847;51.984;5.088;2022-08-20T08:01:56;9.87;;;2.77;;
69625;SDS011;56847;51.984;5.088;2022-08-20T08:04:23;10.07;;;2.85;;
69625;SDS011;56847;51.984;5.088;2022-08-20T08:06:51;9.35;;;2.80;;
69625;SDS011;56847;51.984;5.088;2022-08-20T08:09:20;10.40;;;2.67;;
69625;SDS011;56847;51.984;5.088;2022-08-20T08:11:47;15.85;;;3.15;;
69625;SDS011;56847;51.984;5.088;2022-08-20T08:14:17;11.60;;;2.80;;
69625;SDS011;56847;51.984;5.088;2022-08-20T08:16:49;9.90;;;2.75;;
69625;SDS011;56847;51.984;5.088;2022-08-20T08:19:18;10.13;;;2.85;;
69625;SDS011;56847;51.984;5.088;2022-08-20T08:21:45;8.73;;;2.88;;
69625;SDS011;56847;51.984;5.088;2022-08-20T08:24:13;13.23;;;2.65;;
69625;SDS011;56847;51.984;5.088;2022-08-20T08:26:47;8.53;;;3.03;;
69625;SDS011;56847;51.984;5.088;2022-08-20T08:29:15;20.55;;;3.20;;
69625;SDS011;56847;51.984;5.088;2022-08-20T08:31:42;7.70;;;2.95;;
69625;SDS011;56847;51.984;5.088;2022-08-20T08:34:10;11.70;;;2.80;;
69625;SDS011;56847;51.984;5.088;2022-08-20T08:36:37;13.38;;;2.78;;
69625;SDS011;56847;51.984;5.088;2022-08-20T08:39:05;7.73;;;2.73;;
69625;SDS011;56847;51.984;5.088;2022-08-20T08:41:34;12.98;;;3.20;;
69625;SDS011;56847;51.984;5.088;2022-08-20T08:44:04;6.72;;;2.97;;
69625;SDS011;56847;51.984;5.088;2022-08-20T08:46:37;8.85;;;2.45;;
69625;SDS011;56847;51.984;5.088;2022-08-20T08:49:09;10.25;;;2.47;;
69625;SDS011;56847;51.984;5.088;2022-08-20T08:51:45;12.00;;;3.17;;
69625;SDS011;56847;51.984;5.088;2022-08-20T08:54:33;10.18;;;3.53;;
69625;SDS011;56847;51.984;5.088;2022-08-20T08:57:01;14.23;;;3.25;;
69625;SDS011;56847;51.984;5.088;2022-08-20T08:59:28;9.90;;;3.15;;
69625;SDS011;56847;51.984;5.088;2022-08-20T09:02:20;10.18;;;3.15;;
69625;SDS011;56847;51.984;5.088;2022-08-20T09:04:51;10.13;;;3.03;;
69625;SDS011;56847;51.984;5.088;2022-08-20T09:07:22;9.85;;;3.25;;
69625;SDS011;56847;51.984;5.088;2022-08-20T09:09:52;12.73;;;3.13;;
69625;SDS011;56847;51.984;5.088;2022-08-20T09:12:21;9.60;;;2.63;;
69625;SDS011;56847;51.984;5.088;2022-08-20T09:14:51;8.60;;;2.83;;
69625;SDS011;56847;51.984;5.088;2022-08-20T09:17:21;15.23;;;2.63;;
69625;SDS011;56847;51.984;5.088;2022-08-20T09:19:50;12.10;;;3.67;;
69625;SDS011;56847;51.984;5.088;2022-08-20T09:22:21;9.45;;;3.00;;
69625;SDS011;56847;51.984;5.088;2022-08-20T09:24:51;11.73;;;3.25;;
69625;SDS011;56847;51.984;5.088;2022-08-20T09:27:19;10.43;;;3.60;;
69625;SDS011;56847;51.984;5.088;2022-08-20T09:29:46;10.90;;;3.53;;
69625;SDS011;56847;51.984;5.088;2022-08-20T09:32:21;10.88;;;3.13;;
69625;SDS011;56847;51.984;5.088;2022-08-20T09:34:53;8.73;;;2.90;;
69625;SDS011;56847;51.984;5.088;2022-08-20T09:37:24;14.15;;;3.33;;
69625;SDS011;56847;51.984;5.088;2022-08-20T09:39:52;13.05;;;3.33;;
69625;SDS011;56847;51.984;5.088;2022-08-20T09:42:21;8.73;;;3.10;;
69625;SDS011;56847;51.984;5.088;2022-08-20T09:44:50;12.18;;;3.47;;
69625;SDS011;56847;51.984;5.088;2022-08-20T09:47:19;8.15;;;3.28;;
69625;SDS011;56847;51.984;5.088;2022-08-20T09:49:47;12.65;;;3.30;;
69625;SDS011;56847;51.984;5.088;2022-08-20T09:52:48;10.10;;;3.03;;
69625;SDS011;56847;51.984;5.088;2022-08-20T09:57:59;9.30;;;2.67;;
69625;SDS011;56847;51.984;5.088;2022-08-20T10:00:27;9.38;;;2.70;;
69625;SDS011;56847;51.984;5.088;2022-08-20T10:02:57;10.80;;;3.70;;
69625;SDS011;56847;51.984;5.088;2022-08-20T10:05:27;10.32;;;3.30;;
69625;SDS011;56847;51.984;5.088;2022-08-20T10:07:55;12.03;;;3.13;;
69625;SDS011;56847;51.984;5.088;2022-08-20T10:10:22;14.40;;;2.78;;
69625;SDS011;56847;51.984;5.088;2022-08-20T10:12:49;8.20;;;2.40;;
69625;SDS011;56847;51.984;5.088;2022-08-20T10:15:20;10.25;;;3.30;;
69625;SDS011;56847;51.984;5.088;2022-08-20T10:17:50;13.80;;;3.33;;
69625;SDS011;56847;51.984;5.088;2022-08-20T10:20:17;12.47;;;3.20;;
69625;SDS011;56847;51.984;5.088;2022-08-20T10:22:52;16.70;;;3.42;;
69625;SDS011;56847;51.984;5.088;2022-08-20T10:25:20;10.55;;;3.40;;
69625;SDS011;56847;51.984;5.088;2022-08-20T10:27:47;13.27;;;3.22;;
69625;SDS011;56847;51.984;5.088;2022-08-20T10:30:14;10.77;;;3.10;;
69625;SDS011;56847;51.984;5.088;2022-08-20T10:32:41;11.27;;;3.00;;
69625;SDS011;56847;51.984;5.088;2022-08-20T10:35:09;8.32;;;3.45;;
69625;SDS011;56847;51.984;5.088;2022-08-20T10:37:36;11.32;;;3.55;;
69625;SDS011;56847;51.984;5.088;2022-08-20T10:40:06;11.30;;;3.30;;
69625;SDS011;56847;51.984;5.088;2022-08-20T10:42:34;10.25;;;3.08;;
69625;SDS011;56847;51.984;5.088;2022-08-20T10:45:12;9.90;;;3.57;;
69625;SDS011;56847;51.984;5.088;2022-08-20T10:47:41;10.77;;;3.22;;
69625;SDS011;56847;51.984;5.088;2022-08-20T10:50:11;11.82;;;3.40;;
69625;SDS011;56847;51.984;5.088;2022-08-20T10:52:42;10.80;;;2.88;;
69625;SDS011;56847;51.984;5.088;2022-08-20T10:55:11;9.40;;;2.78;;
69625;SDS011;56847;51.984;5.088;2022-08-20T10:57:42;13.93;;;4.07;;
69625;SDS011;56847;51.984;5.088;2022-08-20T11:00:11;13.38;;;2.72;;
69625;SDS011;56847;51.984;5.088;2022-08-20T11:02:43;15.38;;;3.08;;
69625;SDS011;56847;51.984;5.088;2022-08-20T11:05:10;9.32;;;3.20;;
69625;SDS011;56847;51.984;5.088;2022-08-20T11:07:41;11.73;;;3.00;;
69625;SDS011;56847;51.984;5.088;2022-08-20T11:10:28;13.17;;;3.27;;
69625;SDS011;56847;51.984;5.088;2022-08-20T11:13:00;13.80;;;3.13;;
69625;SDS011;56847;51.984;5.088;2022-08-20T11:15:35;13.55;;;3.70;;
69625;SDS011;56847;51.984;5.088;2022-08-20T11:18:06;13.05;;;3.28;;
69625;SDS011;56847;51.984;5.088;2022-08-20T11:20:34;17.63;;;4.18;;
69625;SDS011;56847;51.984;5.088;2022-08-20T11:23:02;8.07;;;3.40;;
69625;SDS011;56847;51.984;5.088;2022-08-20T11:25:29;10.47;;;3.13;;
69625;SDS011;56847;51.984;5.088;2022-08-20T11:28:00;10.88;;;3.38;;
69625;SDS011;56847;51.984;5.088;2022-08-20T11:30:31;11.30;;;3.08;;
69625;SDS011;56847;51.984;5.088;2022-08-20T11:33:00;15.18;;;3.60;;
69625;SDS011;56847;51.984;5.088;2022-08-20T11:35:29;11.13;;;3.30;;
69625;SDS011;56847;51.984;5.088;2022-08-20T11:38:14;11.40;;;2.60;;
69625;SDS011;56847;51.984;5.088;2022-08-20T11:40:41;7.57;;;2.63;;
69625;SDS011;56847;51.984;5.088;2022-08-20T11:43:10;11.65;;;3.40;;
69625;SDS011;56847;51.984;5.088;2022-08-20T11:45:41;8.57;;;3.35;;
69625;SDS011;56847;51.984;5.088;2022-08-20T11:48:14;10.23;;;3.67;;
69625;SDS011;56847;51.984;5.088;2022-08-20T11:50:45;15.57;;;3.40;;
69625;SDS011;56847;51.984;5.088;2022-08-20T11:53:14;14.70;;;3.38;;
69625;SDS011;56847;51.984;5.088;2022-08-20T11:55:44;13.88;;;3.83;;
69625;SDS011;56847;51.984;5.088;2022-08-20T11:58:13;13.38;;;3.72;;
69625;SDS011;56847;51.984;5.088;2022-08-20T12:00:46;12.68;;;3.75;;
69625;SDS011;56847;51.984;5.088;2022-08-20T12:03:13;11.30;;;3.67;;
69625;SDS011;56847;51.984;5.088;2022-08-20T12:05:42;12.37;;;3.30;;
69625;SDS011;56847;51.984;5.088;2022-08-20T12:08:13;10.18;;;3.97;;
69625;SDS011;56847;51.984;5.088;2022-08-20T12:10:55;10.00;;;3.80;;
69625;SDS011;56847;51.984;5.088;2022-08-20T12:16:44;10.70;;;3.42;;
69625;SDS011;56847;51.984;5.088;2022-08-20T12:19:12;12.33;;;4.03;;
69625;SDS011;56847;51.984;5.088;2022-08-20T12:21:41;11.18;;;2.90;;
69625;SDS011;56847;51.984;5.088;2022-08-20T12:24:12;11.75;;;3.00;;
69625;SDS011;56847;51.984;5.088;2022-08-20T12:26:39;11.23;;;3.35;;
69625;SDS011;56847;51.984;5.088;2022-08-20T12:29:06;9.00;;;2.90;;
69625;SDS011;56847;51.984;5.088;2022-08-20T12:31:33;12.27;;;3.00;;
69625;SDS011;56847;51.984;5.088;2022-08-20T12:34:04;10.63;;;3.07;;
69625;SDS011;56847;51.984;5.088;2022-08-20T12:36:34;9.10;;;3.08;;
69625;SDS011;56847;51.984;5.088;2022-08-20T12:39:01;11.73;;;3.42;;
69625;SDS011;56847;51.984;5.088;2022-08-20T12:41:29;11.48;;;3.05;;
69625;SDS011;56847;51.984;5.088;2022-08-20T12:43:56;7.97;;;2.83;;
69625;SDS011;56847;51.984;5.088;2022-08-20T12:46:23;12.20;;;3.20;;
69625;SDS011;56847;51.984;5.088;2022-08-20T12:48:50;10.27;;;3.13;;
69625;SDS011;56847;51.984;5.088;2022-08-20T12:51:18;10.68;;;2.88;;
69625;SDS011;56847;51.984;5.088;2022-08-20T12:53:51;10.50;;;2.63;;
69625;SDS011;56847;51.984;5.088;2022-08-20T12:56:18;9.75;;;2.70;;
69625;SDS011;56847;51.984;5.088;2022-08-20T12:58:45;10.47;;;3.30;;
69625;SDS011;56847;51.984;5.088;2022-08-20T13:01:15;11.13;;;2.90;;
69625;SDS011;56847;51.984;5.088;2022-08-20T13:03:49;10.60;;;3.10;;
69625;SDS011;56847;51.984;5.088;2022-08-20T13:06:17;10.10;;;2.78;;
69625;SDS011;56847;51.984;5.088;2022-08-20T13:08:48;9.07;;;2.85;;
69625;SDS011;56847;51.984;5.088;2022-08-20T13:11:17;12.07;;;3.20;;
69625;SDS011;56847;51.984;5.088;2022-08-20T13:13:45;11.33;;;2.60;;
69625;SDS011;56847;51.984;5.088;2022-08-20T13:16:16;7.97;;;2.40;;
69625;SDS011;56847;51.984;5.088;2022-08-20T13:18:46;18.08;;;3.60;;
69625;SDS011;56847;51.984;5.088;2022-08-20T13:21:13;10.15;;;2.97;;
69625;SDS011;56847;51.984;5.088;2022-08-20T13:23:41;13.60;;;3.65;;
69625;SDS011;56847;51.984;5.088;2022-08-20T13:26:08;10.63;;;3.37;;
69625;SDS011;56847;51.984;5.088;2022-08-20T13:28:40;9.90;;;3.53;;
69625;SDS011;56847;51.984;5.088;2022-08-20T13:31:10;11.88;;;3.17;;
69625;SDS011;56847;51.984;5.088;2022-08-20T13:33:38;9.85;;;2.97;;
69625;SDS011;56847;51.984;5.088;2022-08-20T13:36:06;12.50;;;3.45;;
69625;SDS011;56847;51.984;5.088;2022-08-20T13:38:40;11.48;;;4.00;;
69625;SDS011;56847;51.984;5.088;2022-08-20T13:41:07;11.77;;;3.07;;
69625;SDS011;56847;51.984;5.088;2022-08-20T13:43:34;15.02;;;3.60;;
69625;SDS011;56847;51.984;5.088;2022-08-20T13:46:01;12.55;;;3.40;;
69625;SDS011;56847;51.984;5.088;2022-08-20T13:48:32;11.27;;;3.67;;
69625;SDS011;56847;51.984;5.088;2022-08-20T13:50:59;12.18;;;3.75;;
69625;SDS011;56847;51.984;5.088;2022-08-20T13:53:32;15.10;;;4.00;;
69625;SDS011;56847;51.984;5.088;2022-08-20T13:56:00;17.08;;;3.78;;
69625;SDS011;56847;51.984;5.088;2022-08-20T13:58:30;14.73;;;3.03;;
69625;SDS011;56847;51.984;5.088;2022-08-20T14:00:57;14.13;;;3.80;;
69625;SDS011;56847;51.984;5.088;2022-08-20T14:03:30;7.38;;;3.03;;
69625;SDS011;56847;51.984;5.088;2022-08-20T14:06:01;11.70;;;3.10;;
69625;SDS011;56847;51.984;5.088;2022-08-20T14:08:30;9.55;;;2.92;;
69625;SDS011;56847;51.984;5.088;2022-08-20T14:10:58;14.43;;;3.47;;
69625;SDS011;56847;51.984;5.088;2022-08-20T14:13:29;11.73;;;3.28;;
69625;SDS011;56847;51.984;5.088;2022-08-20T14:15:57;10.48;;;3.17;;
69625;SDS011;56847;51.984;5.088;2022-08-20T14:18:30;10.37;;;3.07;;
69625;SDS011;56847;51.984;5.088;2022-08-20T14:21:02;9.37;;;3.10;;
69625;SDS011;56847;51.984;5.088;2022-08-20T14:23:33;7.82;;;3.38;;
69625;SDS011;56847;51.984;5.088;2022-08-20T14:26:06;9.15;;;2.90;;
69625;SDS011;56847;51.984;5.088;2022-08-20T14:28:36;13.00;;;3.45;;
69625;SDS011;56847;51.984;5.088;2022-08-20T14:31:03;10.52;;;3.55;;
69625;SDS011;56847;51.984;5.088;2022-08-20T14:33:33;10.43;;;3.00;;
69625;SDS011;56847;51.984;5.088;2022-08-20T14:36:01;7.00;;;2.70;;
69625;SDS011;56847;51.984;5.088;2022-08-20T14:38:36;8.27;;;3.40;;
69625;SDS011;56847;51.984;5.088;2022-08-20T14:41:07;8.00;;;2.88;;
69625;SDS011;56847;51.984;5.088;2022-08-20T14:43:37;10.63;;;3.67;;
69625;SDS011;56847;51.984;5.088;2022-08-20T14:46:11;8.43;;;2.37;;
69625;SDS011;56847;51.984;5.088;2022-08-20T14:48:48;8.65;;;2.67;;
69625;SDS011;56847;51.984;5.088;2022-08-20T14:51:19;10.00;;;3.17;;
69625;SDS011;56847;51.984;5.088;2022-08-20T14:53:54;11.05;;;3.10;;
69625;SDS011;56847;51.984;5.088;2022-08-20T14:56:21;11.82;;;3.38;;
69625;SDS011;56847;51.984;5.088;2022-08-20T14:58:49;10.20;;;3.30;;
69625;SDS011;56847;51.984;5.088;2022-08-20T15:01:18;8.45;;;3.70;;
69625;SDS011;56847;51.984;5.088;2022-08-20T15:03:45;11.95;;;3.60;;
69625;SDS011;56847;51.984;5.088;2022-08-20T15:06:16;10.32;;;3.67;;
69625;SDS011;56847;51.984;5.088;2022-08-20T15:08:47;14.63;;;3.88;;
69625;SDS011;56847;51.984;5.088;2022-08-20T15:11:15;11.97;;;4.47;;
69625;SDS011;56847;51.984;5.088;2022-08-20T15:13:49;18.35;;;9.82;;